createdAt,value
2023-04-29T00:00:21.136Z,0.00
2023-04-29T00:01:21.148Z,0.00
2023-04-29T00:02:21.185Z,0.00
2023-04-29T00:03:21.520Z,0.00
2023-04-29T00:04:21.378Z,0.00
2023-04-29T00:05:21.326Z,0.00
2023-04-29T00:06:21.183Z,0.00
2023-04-29T00:07:21.124Z,0.00
2023-04-29T00:08:21.122Z,0.00
2023-04-29T00:09:21.122Z,0.00
2023-04-29T00:10:21.129Z,0.00
2023-04-29T00:11:21.118Z,0.00
2023-04-29T00:12:21.158Z,0.00
2023-04-29T00:13:21.122Z,0.00
2023-04-29T00:14:21.121Z,0.00
2023-04-29T00:15:21.115Z,0.00
2023-04-29T00:16:21.149Z,0.00
2023-04-29T00:17:21.177Z,0.00
2023-04-29T00:18:21.154Z,0.00
2023-04-29T00:19:21.112Z,0.00
2023-04-29T00:20:21.116Z,0.00
2023-04-29T00:21:21.108Z,0.00
2023-04-29T00:22:21.117Z,0.00
2023-04-29T00:23:21.116Z,0.00
2023-04-29T00:24:21.113Z,0.00
2023-04-29T00:25:21.109Z,0.00
2023-04-29T00:26:21.112Z,0.00
2023-04-29T00:27:21.108Z,0.00
2023-04-29T00:28:21.109Z,0.00
2023-04-29T00:29:21.111Z,0.00
2023-04-29T00:30:21.109Z,0.00
2023-04-29T00:31:21.199Z,0.00
2023-04-29T00:32:21.109Z,0.00
2023-04-29T00:33:21.103Z,0.00
2023-04-29T00:34:21.127Z,0.00
2023-04-29T00:35:21.098Z,0.00
2023-04-29T00:36:21.106Z,0.00
2023-04-29T00:37:21.104Z,0.00
2023-04-29T00:38:21.118Z,0.00
2023-04-29T00:39:21.107Z,0.00
2023-04-29T00:40:21.104Z,0.00
2023-04-29T00:41:21.097Z,0.00
2023-04-29T00:42:21.104Z,0.00
2023-04-29T00:43:21.105Z,0.00
2023-04-29T00:44:21.098Z,0.00
2023-04-29T00:45:21.103Z,0.00
2023-04-29T00:46:21.191Z,0.00
2023-04-29T00:47:21.090Z,0.00
2023-04-29T00:48:21.099Z,0.00
2023-04-29T00:49:21.096Z,0.00
2023-04-29T00:50:21.119Z,0.00
2023-04-29T00:51:21.102Z,0.00
2023-04-29T00:52:21.099Z,0.00
2023-04-29T00:53:21.088Z,0.00
2023-04-29T00:54:21.103Z,0.00
2023-04-29T00:55:21.090Z,0.00
2023-04-29T00:56:21.133Z,0.00
2023-04-29T00:57:21.086Z,0.00
2023-04-29T00:58:21.091Z,0.00
2023-04-29T00:59:21.085Z,0.00
2023-04-29T01:00:21.087Z,0.00
2023-04-29T01:01:21.101Z,0.00
2023-04-29T01:02:21.141Z,0.00
2023-04-29T01:03:21.147Z,0.00
2023-04-29T01:04:21.121Z,0.00
2023-04-29T01:05:21.432Z,0.00
2023-04-29T01:06:21.121Z,0.00
2023-04-29T01:07:21.079Z,0.00
2023-04-29T01:08:21.094Z,0.00
2023-04-29T01:09:21.081Z,0.00
2023-04-29T01:10:21.088Z,0.00
2023-04-29T01:11:21.081Z,0.00
2023-04-29T01:12:21.082Z,0.00
2023-04-29T01:13:21.078Z,0.00
2023-04-29T01:14:21.082Z,0.00
2023-04-29T01:15:21.092Z,0.00
2023-04-29T01:16:21.118Z,0.00
2023-04-29T01:17:21.071Z,0.00
2023-04-29T01:18:21.179Z,0.00
2023-04-29T01:19:21.073Z,0.00
2023-04-29T01:20:21.079Z,0.00
2023-04-29T01:21:21.075Z,0.00
2023-04-29T01:22:21.098Z,0.00
2023-04-29T01:23:21.067Z,0.00
2023-04-29T01:24:21.080Z,0.00
2023-04-29T01:25:21.078Z,0.00
2023-04-29T01:26:21.073Z,0.00
2023-04-29T01:27:21.081Z,0.00
2023-04-29T01:28:21.074Z,0.00
2023-04-29T01:29:21.067Z,0.00
2023-04-29T01:30:21.076Z,0.00
2023-04-29T01:31:21.124Z,0.00
2023-04-29T01:32:21.077Z,0.00
2023-04-29T01:33:21.078Z,0.00
2023-04-29T01:34:21.066Z,0.00
2023-04-29T01:35:21.058Z,0.00
2023-04-29T01:36:21.065Z,0.00
2023-04-29T01:37:21.059Z,0.00
2023-04-29T01:38:21.088Z,0.00
2023-04-29T01:39:21.062Z,0.00
2023-04-29T01:40:21.062Z,0.00
2023-04-29T01:41:21.066Z,0.00
2023-04-29T01:42:21.060Z,0.00
2023-04-29T01:43:21.054Z,0.00
2023-04-29T01:44:21.062Z,0.00
2023-04-29T01:45:21.060Z,0.00
2023-04-29T01:46:21.068Z,0.00
2023-04-29T01:47:21.062Z,0.00
2023-04-29T01:48:21.058Z,0.00
2023-04-29T01:49:21.054Z,0.00
2023-04-29T01:50:21.054Z,0.00
2023-04-29T01:51:21.052Z,0.00
2023-04-29T01:52:21.055Z,0.00
2023-04-29T01:53:21.054Z,0.00
2023-04-29T01:54:21.079Z,0.00
2023-04-29T01:55:21.047Z,0.00
2023-04-29T01:56:21.052Z,0.00
2023-04-29T01:57:21.050Z,0.00
2023-04-29T01:58:21.051Z,0.00
2023-04-29T01:59:21.045Z,0.00
2023-04-29T02:00:21.053Z,0.00
2023-04-29T02:01:21.100Z,0.00
2023-04-29T02:02:21.232Z,0.00
2023-04-29T02:03:21.171Z,0.00
2023-04-29T02:04:21.084Z,0.00
2023-04-29T02:05:21.037Z,0.00
2023-04-29T02:06:21.048Z,0.00
2023-04-29T02:07:21.038Z,0.00
2023-04-29T02:08:21.068Z,0.00
2023-04-29T02:09:21.045Z,0.00
2023-04-29T02:10:21.074Z,0.00
2023-04-29T02:11:21.040Z,0.00
2023-04-29T02:12:21.039Z,0.00
2023-04-29T02:13:21.042Z,0.00
2023-04-29T02:14:21.040Z,0.00
2023-04-29T02:15:21.038Z,0.00
2023-04-29T02:16:21.086Z,0.00
2023-04-29T02:17:21.098Z,0.00
2023-04-29T02:18:21.035Z,0.00
2023-04-29T02:19:21.032Z,0.00
2023-04-29T02:20:21.036Z,0.00
2023-04-29T02:21:21.032Z,0.00
2023-04-29T02:22:21.051Z,0.00
2023-04-29T02:23:21.032Z,0.00
2023-04-29T02:24:21.041Z,0.00
2023-04-29T02:25:21.037Z,0.00
2023-04-29T02:26:21.059Z,0.00
2023-04-29T02:27:21.024Z,0.00
2023-04-29T02:28:21.035Z,0.00
2023-04-29T02:29:21.025Z,0.00
2023-04-29T02:30:21.032Z,0.00
2023-04-29T02:31:21.078Z,0.00
2023-04-29T02:32:21.026Z,0.00
2023-04-29T02:33:21.023Z,0.00
2023-04-29T02:34:21.031Z,0.00
2023-04-29T02:35:21.019Z,0.00
2023-04-29T02:36:21.360Z,0.00
2023-04-29T02:37:21.019Z,0.00
2023-04-29T02:38:21.025Z,0.00
2023-04-29T02:39:21.020Z,0.00
2023-04-29T02:40:21.041Z,0.00
2023-04-29T02:41:21.034Z,0.00
2023-04-29T02:42:21.046Z,0.00
2023-04-29T02:43:21.016Z,0.00
2023-04-29T02:44:21.015Z,0.00
2023-04-29T02:45:21.015Z,0.00
2023-04-29T02:46:21.163Z,0.00
2023-04-29T02:47:21.018Z,0.00
2023-04-29T02:48:21.015Z,0.00
2023-04-29T02:49:21.010Z,0.00
2023-04-29T02:50:21.010Z,0.00
2023-04-29T02:51:21.009Z,0.00
2023-04-29T02:52:21.012Z,0.00
2023-04-29T02:53:21.008Z,0.00
2023-04-29T02:54:21.010Z,0.00
2023-04-29T02:55:21.003Z,0.00
2023-04-29T02:56:21.004Z,0.00
2023-04-29T02:57:20.999Z,0.00
2023-04-29T02:58:21.028Z,0.00
2023-04-29T02:59:20.999Z,0.00
2023-04-29T03:00:21.001Z,0.00
2023-04-29T03:01:21.016Z,0.00
2023-04-29T03:02:21.115Z,0.00
2023-04-29T03:03:21.201Z,0.00
2023-04-29T03:04:21.114Z,0.00
2023-04-29T03:05:21.012Z,0.00
2023-04-29T03:06:21.001Z,0.00
2023-04-29T03:07:20.998Z,0.00
2023-04-29T03:08:20.998Z,0.00
2023-04-29T03:09:20.990Z,0.00
2023-04-29T03:10:21.005Z,0.00
2023-04-29T03:11:20.989Z,0.00
2023-04-29T03:12:20.993Z,0.00
2023-04-29T03:13:21.014Z,0.00
2023-04-29T03:14:21.013Z,0.00
2023-04-29T03:15:20.998Z,0.00
2023-04-29T03:16:21.110Z,0.00
2023-04-29T03:17:20.990Z,0.00
2023-04-29T03:18:20.996Z,0.00
2023-04-29T03:19:20.982Z,0.00
2023-04-29T03:20:20.986Z,0.00
2023-04-29T03:21:20.978Z,0.00
2023-04-29T03:22:20.984Z,0.00
2023-04-29T03:23:20.974Z,0.00
2023-04-29T03:24:20.977Z,0.00
2023-04-29T03:25:20.972Z,0.00
2023-04-29T03:26:21.012Z,0.00
2023-04-29T03:27:20.975Z,0.00
2023-04-29T03:28:20.981Z,0.00
2023-04-29T03:29:20.969Z,0.00
2023-04-29T03:30:20.996Z,0.00
2023-04-29T03:31:21.019Z,0.00
2023-04-29T03:32:20.968Z,0.00
2023-04-29T03:33:20.963Z,0.00
2023-04-29T03:34:20.966Z,0.00
2023-04-29T03:35:20.965Z,0.00
2023-04-29T03:36:20.968Z,0.00
2023-04-29T03:37:20.958Z,0.00
2023-04-29T03:38:20.963Z,0.00
2023-04-29T03:39:20.958Z,0.00
2023-04-29T03:40:20.967Z,0.00
2023-04-29T03:41:20.957Z,0.00
2023-04-29T03:42:20.968Z,0.00
2023-04-29T03:43:20.951Z,0.00
2023-04-29T03:44:20.953Z,0.00
2023-04-29T03:45:20.954Z,5.63
2023-04-29T03:46:21.049Z,5.63
2023-04-29T03:47:20.947Z,5.63
2023-04-29T03:48:20.959Z,5.63
2023-04-29T03:49:20.950Z,5.63
2023-04-29T03:50:20.957Z,5.63
2023-04-29T03:51:20.946Z,5.63
2023-04-29T03:52:20.950Z,5.63
2023-04-29T03:53:20.945Z,5.63
2023-04-29T03:54:20.947Z,5.63
2023-04-29T03:55:20.941Z,5.63
2023-04-29T03:56:20.944Z,5.63
2023-04-29T03:57:20.942Z,5.63
2023-04-29T03:58:20.946Z,5.63
2023-04-29T03:59:20.936Z,11.25
2023-04-29T04:00:20.949Z,11.25
2023-04-29T04:01:20.942Z,11.25
2023-04-29T04:02:21.019Z,11.25
2023-04-29T04:03:21.037Z,11.25
2023-04-29T04:04:21.020Z,11.25
2023-04-29T04:05:20.966Z,11.25
2023-04-29T04:06:20.945Z,11.25
2023-04-29T04:07:20.939Z,11.25
2023-04-29T04:08:20.932Z,11.25
2023-04-29T04:09:20.929Z,11.25
2023-04-29T04:10:20.930Z,11.25
2023-04-29T04:11:20.938Z,5.63
2023-04-29T04:12:20.924Z,5.63
2023-04-29T04:13:20.941Z,5.63
2023-04-29T04:14:20.929Z,5.63
2023-04-29T04:15:20.921Z,5.63
2023-04-29T04:16:20.942Z,5.63
2023-04-29T04:17:20.925Z,5.63
2023-04-29T04:18:20.936Z,5.63
2023-04-29T04:19:20.919Z,11.25
2023-04-29T04:20:20.926Z,11.25
2023-04-29T04:21:20.930Z,16.88
2023-04-29T04:22:20.919Z,22.50
2023-04-29T04:23:20.927Z,16.88
2023-04-29T04:24:20.951Z,16.88
2023-04-29T04:25:20.925Z,22.50
2023-04-29T04:26:20.921Z,22.50
2023-04-29T04:27:20.918Z,22.50
2023-04-29T04:28:20.910Z,28.13
2023-04-29T04:29:20.919Z,28.13
2023-04-29T04:30:20.925Z,33.75
2023-04-29T04:31:33.074Z,33.75
2023-04-29T04:32:33.076Z,33.75
2023-04-29T04:33:33.035Z,33.75
2023-04-29T04:34:33.024Z,33.75
2023-04-29T04:35:33.014Z,33.75
2023-04-29T04:36:33.024Z,33.75
2023-04-29T04:37:33.024Z,33.75
2023-04-29T04:38:33.012Z,39.38
2023-04-29T04:39:33.021Z,39.38
2023-04-29T04:40:33.065Z,39.38
2023-04-29T04:41:33.022Z,39.38
2023-04-29T04:42:33.018Z,45.00
2023-04-29T04:43:33.003Z,45.00
2023-04-29T04:44:33.017Z,56.25
2023-04-29T04:45:33.032Z,61.88
2023-04-29T04:46:33.012Z,67.50
2023-04-29T04:47:33.064Z,61.88
2023-04-29T04:48:33.022Z,56.25
2023-04-29T04:49:33.026Z,56.25
2023-04-29T04:50:33.008Z,67.50
2023-04-29T04:51:33.007Z,61.88
2023-04-29T04:52:33.005Z,61.88
2023-04-29T04:53:33.007Z,50.63
2023-04-29T04:54:33.007Z,45.00
2023-04-29T04:55:33.005Z,45.00
2023-04-29T04:56:33.006Z,50.63
2023-04-29T04:57:32.998Z,50.63
2023-04-29T04:58:32.997Z,50.63
2023-04-29T04:59:32.996Z,45.00
2023-04-29T05:00:33.005Z,45.00
2023-04-29T05:01:33.146Z,45.00
2023-04-29T05:02:33.190Z,45.00
2023-04-29T05:03:33.103Z,33.75
2023-04-29T05:04:33.050Z,28.13
2023-04-29T05:05:33.018Z,28.13
2023-04-29T05:06:32.994Z,28.13
2023-04-29T05:07:32.989Z,28.13
2023-04-29T05:08:33.008Z,28.13
2023-04-29T05:09:32.988Z,28.13
2023-04-29T05:10:33.002Z,28.13
2023-04-29T05:11:32.986Z,22.50
2023-04-29T05:12:32.994Z,28.13
2023-04-29T05:13:32.988Z,28.13
2023-04-29T05:14:32.993Z,33.75
2023-04-29T05:15:32.998Z,33.75
2023-04-29T05:16:33.031Z,28.13
2023-04-29T05:17:33.073Z,28.13
2023-04-29T05:18:33.018Z,28.13
2023-04-29T05:19:32.986Z,33.75
2023-04-29T05:20:32.984Z,39.38
2023-04-29T05:21:33.029Z,39.38
2023-04-29T05:22:32.996Z,39.38
2023-04-29T05:23:32.980Z,33.75
2023-04-29T05:24:32.997Z,39.38
2023-04-29T05:25:32.977Z,45.00
2023-04-29T05:26:32.983Z,45.00
2023-04-29T05:27:32.985Z,45.00
2023-04-29T05:28:32.979Z,45.00
2023-04-29T05:29:32.977Z,50.63
2023-04-29T05:30:33.021Z,50.63
2023-04-29T05:31:32.970Z,50.63
2023-04-29T05:32:32.981Z,56.25
2023-04-29T05:33:32.974Z,56.25
2023-04-29T05:34:32.982Z,61.88
2023-04-29T05:35:32.976Z,67.50
2023-04-29T05:36:32.981Z,73.13
2023-04-29T05:37:32.992Z,73.13
2023-04-29T05:38:32.973Z,67.50
2023-04-29T05:39:32.974Z,73.13
2023-04-29T05:40:32.986Z,73.13
2023-04-29T05:41:32.989Z,84.38
2023-04-29T05:42:32.970Z,84.38
2023-04-29T05:43:33.181Z,84.38
2023-04-29T05:44:32.963Z,84.38
2023-04-29T05:45:32.986Z,84.38
2023-04-29T05:46:32.991Z,90.00
2023-04-29T05:47:33.040Z,84.38
2023-04-29T05:48:32.972Z,78.75
2023-04-29T05:49:32.973Z,73.13
2023-04-29T05:50:32.957Z,78.75
2023-04-29T05:51:32.966Z,90.00
2023-04-29T05:52:32.964Z,112.50
2023-04-29T05:53:33.065Z,129.38
2023-04-29T05:54:32.960Z,135.00
2023-04-29T05:55:32.959Z,135.00
2023-04-29T05:56:32.968Z,202.50
2023-04-29T05:57:32.956Z,180.00
2023-04-29T05:58:32.967Z,151.88
2023-04-29T05:59:32.959Z,118.13
2023-04-29T06:00:32.959Z,112.50
2023-04-29T06:01:32.956Z,112.50
2023-04-29T06:02:34.597Z,118.13
2023-04-29T06:03:33.130Z,123.75
2023-04-29T06:04:33.146Z,129.38
2023-04-29T06:05:33.364Z,118.13
2023-04-29T06:06:33.051Z,135.00
2023-04-29T06:07:32.950Z,140.63
2023-04-29T06:08:32.956Z,146.25
2023-04-29T06:09:33.092Z,151.88
2023-04-29T06:10:32.950Z,180.00
2023-04-29T06:11:32.950Z,157.50
2023-04-29T06:12:32.953Z,123.75
2023-04-29T06:13:33.022Z,112.50
2023-04-29T06:14:32.946Z,112.50
2023-04-29T06:15:32.951Z,101.25
2023-04-29T06:16:33.023Z,78.75
2023-04-29T06:17:32.995Z,73.13
2023-04-29T06:18:32.951Z,61.88
2023-04-29T06:19:32.984Z,61.88
2023-04-29T06:20:34.081Z,56.25
2023-04-29T06:21:32.948Z,67.50
2023-04-29T06:22:32.960Z,73.13
2023-04-29T06:23:32.963Z,84.38
2023-04-29T06:24:32.952Z,90.00
2023-04-29T06:25:32.958Z,90.00
2023-04-29T06:26:32.947Z,95.63
2023-04-29T06:27:32.941Z,95.63
2023-04-29T06:28:32.943Z,101.25
2023-04-29T06:29:32.939Z,106.88
2023-04-29T06:30:32.941Z,118.13
2023-04-29T06:31:32.970Z,129.38
2023-04-29T06:32:32.963Z,106.88
2023-04-29T06:33:32.935Z,90.00
2023-04-29T06:34:32.939Z,84.38
2023-04-29T06:35:32.937Z,90.00
2023-04-29T06:36:32.931Z,84.38
2023-04-29T06:37:33.232Z,84.38
2023-04-29T06:38:32.935Z,84.38
2023-04-29T06:39:32.928Z,90.00
2023-04-29T06:40:32.935Z,95.63
2023-04-29T06:41:33.226Z,84.38
2023-04-29T06:42:32.925Z,84.38
2023-04-29T06:43:32.925Z,84.38
2023-04-29T06:44:32.938Z,90.00
2023-04-29T06:45:32.932Z,90.00
2023-04-29T06:46:32.974Z,84.38
2023-04-29T06:47:32.966Z,90.00
2023-04-29T06:48:32.926Z,112.50
2023-04-29T06:49:32.922Z,101.25
2023-04-29T06:50:32.927Z,101.25
2023-04-29T06:51:32.916Z,90.00
2023-04-29T06:52:32.920Z,84.38
2023-04-29T06:53:32.922Z,90.00
2023-04-29T06:54:32.931Z,78.75
2023-04-29T06:55:32.918Z,84.38
2023-04-29T06:56:32.924Z,84.38
2023-04-29T06:57:32.934Z,95.63
2023-04-29T06:58:32.920Z,78.75
2023-04-29T06:59:32.917Z,78.75
2023-04-29T07:00:32.923Z,84.38
2023-04-29T07:01:32.998Z,84.38
2023-04-29T07:02:32.957Z,73.13
2023-04-29T07:03:33.004Z,67.50
2023-04-29T07:04:32.941Z,90.00
2023-04-29T07:05:32.915Z,95.63
2023-04-29T07:06:32.916Z,84.38
2023-04-29T07:07:32.913Z,73.13
2023-04-29T07:08:32.913Z,78.75
2023-04-29T07:09:32.910Z,84.38
2023-04-29T07:10:32.938Z,67.50
2023-04-29T07:11:32.911Z,90.00
2023-04-29T07:12:32.909Z,84.38
2023-04-29T07:13:32.926Z,73.13
2023-04-29T07:14:32.923Z,67.50
2023-04-29T07:15:32.904Z,61.88
2023-04-29T07:16:32.952Z,67.50
2023-04-29T07:17:32.971Z,56.25
2023-04-29T07:18:32.919Z,56.25
2023-04-29T07:19:32.920Z,73.13
2023-04-29T07:20:32.930Z,84.38
2023-04-29T07:21:32.909Z,106.88
2023-04-29T07:22:32.911Z,95.63
2023-04-29T07:23:32.904Z,106.88
2023-04-29T07:24:32.903Z,106.88
2023-04-29T07:25:32.901Z,101.25
2023-04-29T07:26:32.900Z,123.75
2023-04-29T07:27:32.905Z,135.00
2023-04-29T07:28:32.896Z,123.75
2023-04-29T07:29:32.915Z,101.25
2023-04-29T07:30:32.928Z,118.13
2023-04-29T07:31:33.161Z,90.00
2023-04-29T07:32:32.918Z,73.13
2023-04-29T07:33:32.910Z,101.25
2023-04-29T07:34:32.894Z,101.25
2023-04-29T07:35:32.923Z,84.38
2023-04-29T07:36:32.894Z,90.00
2023-04-29T07:37:32.890Z,118.13
2023-04-29T07:38:32.900Z,118.13
2023-04-29T07:39:32.890Z,140.63
2023-04-29T07:40:32.925Z,157.50
2023-04-29T07:41:32.891Z,146.25
2023-04-29T07:42:32.889Z,163.13
2023-04-29T07:43:32.883Z,174.38
2023-04-29T07:44:32.890Z,140.63
2023-04-29T07:45:32.906Z,112.50
2023-04-29T07:46:32.933Z,112.50
2023-04-29T07:47:32.914Z,123.75
2023-04-29T07:48:32.881Z,101.25
2023-04-29T07:49:32.884Z,123.75
2023-04-29T07:50:32.905Z,157.50
2023-04-29T07:51:32.909Z,151.88
2023-04-29T07:52:32.914Z,180.00
2023-04-29T07:53:32.889Z,174.38
2023-04-29T07:54:32.877Z,157.50
2023-04-29T07:55:32.885Z,146.25
2023-04-29T07:56:32.877Z,140.63
2023-04-29T07:57:32.872Z,135.00
2023-04-29T07:58:32.888Z,123.75
2023-04-29T07:59:32.880Z,123.75
2023-04-29T08:00:32.890Z,140.63
2023-04-29T08:01:32.896Z,146.25
2023-04-29T08:02:32.978Z,140.63
2023-04-29T08:03:33.012Z,123.75
2023-04-29T08:04:32.992Z,157.50
2023-04-29T08:05:33.781Z,157.50
2023-04-29T08:06:32.866Z,196.88
2023-04-29T08:07:32.863Z,219.38
2023-04-29T08:08:32.869Z,213.75
2023-04-29T08:09:32.865Z,185.63
2023-04-29T08:10:32.871Z,146.25
2023-04-29T08:11:32.870Z,140.63
2023-04-29T08:12:32.869Z,151.88
2023-04-29T08:13:32.863Z,191.25
2023-04-29T08:14:32.869Z,208.13
2023-04-29T08:15:32.875Z,213.75
2023-04-29T08:16:32.919Z,196.88
2023-04-29T08:17:32.907Z,180.00
2023-04-29T08:18:32.871Z,163.13
2023-04-29T08:19:32.991Z,213.75
2023-04-29T08:20:32.866Z,219.38
2023-04-29T08:21:32.874Z,230.63
2023-04-29T08:22:32.861Z,219.38
2023-04-29T08:23:32.873Z,174.38
2023-04-29T08:24:32.897Z,163.13
2023-04-29T08:25:32.869Z,174.38
2023-04-29T08:26:32.905Z,213.75
2023-04-29T08:27:32.875Z,202.50
2023-04-29T08:28:32.877Z,236.25
2023-04-29T08:29:32.858Z,213.75
2023-04-29T08:30:32.859Z,174.38
2023-04-29T08:31:32.880Z,168.75
2023-04-29T08:32:32.878Z,157.50
2023-04-29T08:33:32.896Z,146.25
2023-04-29T08:34:32.861Z,168.75
2023-04-29T08:35:32.864Z,174.38
2023-04-29T08:36:32.862Z,180.00
2023-04-29T08:37:33.028Z,185.63
2023-04-29T08:38:32.854Z,196.88
2023-04-29T08:39:32.859Z,225.00
2023-04-29T08:40:32.858Z,219.38
2023-04-29T08:41:32.862Z,202.50
2023-04-29T08:42:32.882Z,202.50
2023-04-29T08:43:32.853Z,230.63
2023-04-29T08:44:32.857Z,286.88
2023-04-29T08:45:32.892Z,298.13
2023-04-29T08:46:32.875Z,225.00
2023-04-29T08:47:32.972Z,219.38
2023-04-29T08:48:33.002Z,196.88
2023-04-29T08:49:32.892Z,191.25
2023-04-29T08:50:32.853Z,157.50
2023-04-29T08:51:32.849Z,157.50
2023-04-29T08:52:32.880Z,146.25
2023-04-29T08:53:32.853Z,163.13
2023-04-29T08:54:32.896Z,185.63
2023-04-29T08:55:32.864Z,174.38
2023-04-29T08:56:32.843Z,163.13
2023-04-29T08:57:32.854Z,129.38
2023-04-29T08:58:32.871Z,174.38
2023-04-29T08:59:32.850Z,163.13
2023-04-29T09:00:33.036Z,180.00
2023-04-29T09:01:32.933Z,157.50
2023-04-29T09:02:32.898Z,191.25
2023-04-29T09:03:32.944Z,180.00
2023-04-29T09:04:32.867Z,191.25
2023-04-29T09:05:32.876Z,202.50
2023-04-29T09:06:32.841Z,191.25
2023-04-29T09:07:32.841Z,157.50
2023-04-29T09:08:32.841Z,202.50
2023-04-29T09:09:32.853Z,202.50
2023-04-29T09:10:32.843Z,208.13
2023-04-29T09:11:32.840Z,157.50
2023-04-29T09:12:32.833Z,146.25
2023-04-29T09:13:32.846Z,151.88
2023-04-29T09:14:32.838Z,163.13
2023-04-29T09:15:32.839Z,146.25
2023-04-29T09:16:32.931Z,163.13
2023-04-29T09:17:32.893Z,168.75
2023-04-29T09:18:32.840Z,163.13
2023-04-29T09:19:32.842Z,191.25
2023-04-29T09:20:32.851Z,185.63
2023-04-29T09:21:32.857Z,196.88
2023-04-29T09:22:32.841Z,202.50
2023-04-29T09:23:32.839Z,208.13
2023-04-29T09:24:32.843Z,230.63
2023-04-29T09:25:32.842Z,236.25
2023-04-29T09:26:32.836Z,270.00
2023-04-29T09:27:32.842Z,236.25
2023-04-29T09:28:32.834Z,241.88
2023-04-29T09:29:32.849Z,258.75
2023-04-29T09:30:32.847Z,236.25
2023-04-29T09:31:32.860Z,208.13
2023-04-29T09:32:32.846Z,191.25
2023-04-29T09:33:32.847Z,135.00
2023-04-29T09:34:32.828Z,168.75
2023-04-29T09:35:32.835Z,135.00
2023-04-29T09:36:32.831Z,146.25
2023-04-29T09:37:32.858Z,219.38
2023-04-29T09:38:32.840Z,219.38
2023-04-29T09:39:32.832Z,185.63
2023-04-29T09:40:36.478Z,163.13
2023-04-29T09:41:32.830Z,174.38
2023-04-29T09:42:32.836Z,219.38
2023-04-29T09:43:32.832Z,253.13
2023-04-29T09:44:34.209Z,275.63
2023-04-29T09:45:32.862Z,241.88
2023-04-29T09:46:32.896Z,253.13
2023-04-29T09:47:32.905Z,230.63
2023-04-29T09:48:32.830Z,213.75
2023-04-29T09:49:32.881Z,196.88
2023-04-29T09:50:32.828Z,230.63
2023-04-29T09:51:32.831Z,202.50
2023-04-29T09:52:32.823Z,208.13
2023-04-29T09:53:32.850Z,174.38
2023-04-29T09:54:32.836Z,163.13
2023-04-29T09:55:32.830Z,241.88
2023-04-29T09:56:32.835Z,275.63
2023-04-29T09:57:32.838Z,303.75
2023-04-29T09:58:32.818Z,247.50
2023-04-29T09:59:32.831Z,230.63
2023-04-29T10:00:32.817Z,241.88
2023-04-29T10:01:32.897Z,264.38
2023-04-29T10:02:32.894Z,264.38
2023-04-29T10:03:32.950Z,258.75
2023-04-29T10:04:32.865Z,292.50
2023-04-29T10:05:32.830Z,286.88
2023-04-29T10:06:32.848Z,253.13
2023-04-29T10:07:32.821Z,208.13
2023-04-29T10:08:32.818Z,185.63
2023-04-29T10:09:32.841Z,163.13
2023-04-29T10:10:32.823Z,151.88
2023-04-29T10:11:32.859Z,196.88
2023-04-29T10:12:32.813Z,163.13
2023-04-29T10:13:32.821Z,168.75
2023-04-29T10:14:32.828Z,163.13
2023-04-29T10:15:32.901Z,185.63
2023-04-29T10:16:32.967Z,196.88
2023-04-29T10:17:32.828Z,281.25
2023-04-29T10:18:32.849Z,247.50
2023-04-29T10:19:32.814Z,191.25
2023-04-29T10:20:32.804Z,196.88
2023-04-29T10:21:32.814Z,185.63
2023-04-29T10:22:32.810Z,219.38
2023-04-29T10:23:32.811Z,219.38
2023-04-29T10:24:32.808Z,213.75
2023-04-29T10:25:32.832Z,241.88
2023-04-29T10:26:32.810Z,208.13
2023-04-29T10:27:32.809Z,202.50
2023-04-29T10:28:32.809Z,230.63
2023-04-29T10:29:32.808Z,298.13
2023-04-29T10:30:32.808Z,292.50
2023-04-29T10:31:32.912Z,309.38
2023-04-29T10:32:43.491Z,286.88
2023-04-29T10:33:32.862Z,264.38
2023-04-29T10:34:32.804Z,270.00
2023-04-29T10:35:32.807Z,298.13
2023-04-29T10:36:32.817Z,258.75
2023-04-29T10:37:32.807Z,202.50
2023-04-29T10:38:32.803Z,253.13
2023-04-29T10:39:32.803Z,219.38
2023-04-29T10:40:32.805Z,253.13
2023-04-29T10:41:32.826Z,292.50
2023-04-29T10:42:32.806Z,275.63
2023-04-29T10:43:32.813Z,286.88
2023-04-29T10:44:32.803Z,270.00
2023-04-29T10:45:32.823Z,241.88
2023-04-29T10:46:32.853Z,281.25
2023-04-29T10:47:32.912Z,315.00
2023-04-29T10:48:32.807Z,315.00
2023-04-29T10:49:32.808Z,270.00
2023-04-29T10:50:32.804Z,292.50
2023-04-29T10:51:32.835Z,281.25
2023-04-29T10:52:32.801Z,270.00
2023-04-29T10:53:32.836Z,286.88
2023-04-29T10:54:32.792Z,264.38
2023-04-29T10:55:32.811Z,298.13
2023-04-29T10:56:32.804Z,264.38
2023-04-29T10:57:32.831Z,264.38
2023-04-29T10:58:32.799Z,286.88
2023-04-29T10:59:32.806Z,236.25
2023-04-29T11:00:32.803Z,236.25
2023-04-29T11:01:32.914Z,376.88
2023-04-29T11:02:32.859Z,433.13
2023-04-29T11:03:32.884Z,613.13
2023-04-29T11:04:32.798Z,714.38
2023-04-29T11:05:32.826Z,635.63
2023-04-29T11:06:32.802Z,483.75
2023-04-29T11:07:32.803Z,360.00
2023-04-29T11:08:32.791Z,303.75
2023-04-29T11:09:32.796Z,253.13
2023-04-29T11:10:32.795Z,225.00
2023-04-29T11:11:32.812Z,213.75
2023-04-29T11:12:32.810Z,241.88
2023-04-29T11:13:32.816Z,241.88
2023-04-29T11:14:32.796Z,258.75
2023-04-29T11:15:32.805Z,275.63
2023-04-29T11:16:32.811Z,258.75
2023-04-29T11:17:32.813Z,264.38
2023-04-29T11:18:32.793Z,247.50
2023-04-29T11:19:32.837Z,253.13
2023-04-29T11:20:32.803Z,270.00
2023-04-29T11:21:32.798Z,331.88
2023-04-29T11:22:32.796Z,303.75
2023-04-29T11:23:32.815Z,354.38
2023-04-29T11:24:32.805Z,472.50
2023-04-29T11:25:32.786Z,506.25
2023-04-29T11:26:32.794Z,444.38
2023-04-29T11:27:32.802Z,540.00
2023-04-29T11:28:32.792Z,562.50
2023-04-29T11:29:32.814Z,821.25
2023-04-29T11:30:32.804Z,860.63
2023-04-29T11:31:32.909Z,939.38
2023-04-29T11:32:32.885Z,978.75
2023-04-29T11:33:32.828Z,720.00
2023-04-29T11:34:32.784Z,658.13
2023-04-29T11:35:32.797Z,613.13
2023-04-29T11:36:32.789Z,585.00
2023-04-29T11:37:32.795Z,556.88
2023-04-29T11:38:32.787Z,506.25
2023-04-29T11:39:32.803Z,500.63
2023-04-29T11:40:32.795Z,354.38
2023-04-29T11:41:32.795Z,264.38
2023-04-29T11:42:32.786Z,258.75
2023-04-29T11:43:32.797Z,196.88
2023-04-29T11:44:32.793Z,168.75
2023-04-29T11:45:32.811Z,174.38
2023-04-29T11:46:32.898Z,157.50
2023-04-29T11:47:32.838Z,151.88
2023-04-29T11:48:32.788Z,151.88
2023-04-29T11:49:32.809Z,191.25
2023-04-29T11:50:32.818Z,309.38
2023-04-29T11:51:32.844Z,376.88
2023-04-29T11:52:32.795Z,399.38
2023-04-29T11:53:32.795Z,472.50
2023-04-29T11:54:32.807Z,489.38
2023-04-29T11:55:32.790Z,500.63
2023-04-29T11:56:32.784Z,495.00
2023-04-29T11:57:32.787Z,540.00
2023-04-29T11:58:32.794Z,652.50
2023-04-29T11:59:32.788Z,843.75
2023-04-29T12:00:32.801Z,1035.00
2023-04-29T12:01:32.823Z,1198.13
2023-04-29T12:02:32.936Z,1186.88
2023-04-29T12:03:32.950Z,1029.38
2023-04-29T12:04:32.943Z,883.13
2023-04-29T12:05:32.861Z,759.38
2023-04-29T12:06:32.784Z,641.25
2023-04-29T12:07:32.806Z,675.00
2023-04-29T12:08:32.789Z,759.38
2023-04-29T12:09:32.787Z,770.63
2023-04-29T12:10:32.803Z,753.75
2023-04-29T12:11:32.795Z,753.75
2023-04-29T12:12:32.808Z,720.00
2023-04-29T12:13:32.808Z,680.63
2023-04-29T12:14:32.808Z,635.63
2023-04-29T12:15:32.804Z,601.88
2023-04-29T12:16:32.817Z,601.88
2023-04-29T12:17:32.865Z,562.50
2023-04-29T12:18:32.797Z,528.75
2023-04-29T12:19:32.798Z,461.25
2023-04-29T12:20:32.799Z,376.88
2023-04-29T12:21:32.793Z,309.38
2023-04-29T12:22:32.806Z,320.63
2023-04-29T12:23:32.801Z,326.25
2023-04-29T12:24:32.807Z,241.88
2023-04-29T12:25:32.801Z,185.63
2023-04-29T12:26:32.798Z,174.38
2023-04-29T12:27:32.806Z,185.63
2023-04-29T12:28:32.795Z,196.88
2023-04-29T12:29:32.796Z,225.00
2023-04-29T12:30:32.808Z,275.63
2023-04-29T12:31:32.828Z,343.13
2023-04-29T12:32:32.835Z,405.00
2023-04-29T12:33:32.840Z,472.50
2023-04-29T12:34:32.800Z,579.38
2023-04-29T12:35:32.818Z,686.25
2023-04-29T12:36:32.786Z,697.50
2023-04-29T12:37:32.837Z,669.38
2023-04-29T12:38:32.805Z,624.38
2023-04-29T12:39:32.807Z,551.25
2023-04-29T12:40:32.798Z,466.88
2023-04-29T12:41:32.805Z,354.38
2023-04-29T12:42:32.805Z,236.25
2023-04-29T12:43:32.811Z,157.50
2023-04-29T12:44:32.831Z,146.25
2023-04-29T12:45:32.862Z,146.25
2023-04-29T12:46:32.914Z,151.88
2023-04-29T12:47:32.842Z,157.50
2023-04-29T12:48:33.447Z,174.38
2023-04-29T12:49:32.824Z,180.00